Rimini, South Carolina
Current Conditions -  °F | °C
As of 2:58 PM on Monday 24 Nov 2014 (Local Time) from KSSC Reporting Station
Broken Clouds Broken Clouds  
Wind Chill: 22°   Ceiling: 1300
Heat Index: 22°   Visibility: 10mi
Dew Point: 20°   Wind: 10mph
Humidity: 88%   Direction: 180°S
Pressure: 29.8"   Gusts: NA
Location:  33.7445°N, 80.5249°W
Report Text: KSSC 241958Z 18009KT 10SM BKN013 BKN080 22/20 A2980 RMK AO2A RAE1956 SLP091 P0000 $
Loading
Personal Weather Stations






























Interactive Weather Map New forecast layout! Learn more

10-Day Weather Forecast

Advertisements
Track Severe Weather on mobile